Time;durP1;ratioP1;P1;durP2;ratioP2;P2;SDS_P1;SDS_P2;PMS_P1;PMS_P2;Temp;Humidity;BMP_temperature;BMP_pressure;BME280_temperature;BME280_humidity;BME280_pressure;Samples;Min_cycle;Max_cycle;Signal;HPM_P1;HPM_P2
2023/10/10 00:02:04;;;;;;;9.73;2.88;;;;;;;15.54;41.74;99060.88;4962097;28;20126;-79
2023/10/10 00:04:33;;;;;;;5.32;2.88;;;;;;;15.59;41.92;99071.81;4959810;28;20042;-80
2023/10/10 00:06:58;;;;;;;5.95;2.80;;;;;;;15.59;41.73;99058.66;4960244;28;20026;-80
2023/10/10 00:09:26;;;;;;;6.70;2.58;;;;;;;15.60;41.94;99055.06;4943506;28;20042;-79
2023/10/10 00:11:53;;;;;;;4.82;2.50;;;;;;;15.60;42.03;99056.88;4960783;28;20030;-80
2023/10/10 00:14:19;;;;;;;6.03;2.63;;;;;;;15.54;42.16;99043.31;4944322;28;20061;-80
2023/10/10 00:16:47;;;;;;;5.95;2.65;;;;;;;15.56;42.36;99051.06;4976258;28;20080;-79
2023/10/10 00:19:29;;;;;;;9.77;2.80;;;;;;;15.54;42.39;99043.31;4944426;28;20113;-80
2023/10/10 00:21:55;;;;;;;9.07;2.90;;;;;;;15.55;42.29;99038.88;4948186;28;20037;-80
2023/10/10 00:24:24;;;;;;;8.50;2.70;;;;;;;15.52;42.54;99033.91;4959809;28;20038;-79
2023/10/10 00:26:49;;;;;;;8.07;2.80;;;;;;;15.47;42.48;99036.13;4960899;28;20034;-79
2023/10/10 00:29:18;;;;;;;6.88;2.70;;;;;;;15.45;42.81;99033.66;4960183;28;20379;-79
2023/10/10 00:31:47;;;;;;;;;;;;;;;15.44;42.96;99028.53;4961081;28;20030;-79
2023/10/10 00:34:13;;;;;;;6.80;2.70;;;;;;;15.41;43.23;99039.31;4960912;28;19910;-80
2023/10/10 00:36:40;;;;;;;10.80;2.92;;;;;;;15.38;43.16;99041.25;4962971;28;20517;-79
2023/10/10 00:44:17;;;;;;;4.35;2.58;;;;;;;15.34;43.62;99032.00;4966602;28;20050;-79
2023/10/10 00:46:43;;;;;;;5.75;2.72;;;;;;;15.31;43.69;99023.56;4948324;28;20050;-80
2023/10/10 00:49:13;;;;;;;5.55;2.83;;;;;;;15.31;43.81;99029.63;4963287;28;20046;-79
2023/10/10 00:51:39;;;;;;;4.38;2.58;;;;;;;15.31;43.98;99026.19;4963730;28;20031;-79
2023/10/10 00:54:26;;;;;;;4.30;2.50;;;;;;;15.33;43.80;99024.25;4962773;28;20042;-79
2023/10/10 00:56:56;;;;;;;3.95;2.25;;;;;;;15.34;43.93;99005.69;4968925;28;20030;-79
2023/10/10 00:59:32;;;;;;;6.28;2.13;;;;;;;15.34;43.98;99005.69;4963295;28;20165;-80
2023/10/10 01:02:00;;;;;;;8.60;2.65;;;;;;;15.34;44.03;99016.22;4949150;28;20041;-80
2023/10/10 01:07:10;;;;;;;6.75;2.75;;;;;;;15.33;43.99;99027.69;4967721;28;20038;-80
2023/10/10 01:09:51;;;;;;;5.20;2.55;;;;;;;15.36;44.09;99032.66;4962208;28;20030;-81
2023/10/10 01:12:17;;;;;;;8.95;2.80;;;;;;;15.33;44.05;99024.25;4967178;28;20066;-81
2023/10/10 01:14:43;;;;;;;5.63;2.38;;;;;;;15.36;44.21;99029.22;4946242;28;20512;-81
2023/10/10 01:17:12;;;;;;;5.20;2.70;;;;;;;15.37;44.21;99023.81;4962809;28;20104;-80
2023/10/10 01:19:37;;;;;;;9.95;2.80;;;;;;;15.34;44.51;99018.84;4978805;28;20036;-80
2023/10/10 01:22:22;;;;;;;4.38;2.40;;;;;;;15.32;44.29;99005.00;4946554;28;20030;-81
2023/10/10 01:24:51;;;;;;;7.25;2.30;;;;;;;15.36;44.46;99006.38;4964907;28;20038;-80
2023/10/10 01:27:21;;;;;;;7.85;2.40;;;;;;;15.37;44.48;99008.03;4946826;28;20133;-80
2023/10/10 01:30:02;;;;;;;5.50;2.55;;;;;;;15.38;44.47;99008.84;4947503;28;20041;-80
2023/10/10 01:32:29;;;;;;;8.27;2.47;;;;;;;15.39;44.40;99010.53;4964210;28;20062;-79
2023/10/10 01:34:54;;;;;;;6.43;2.50;;;;;;;15.40;44.49;99003.47;4946339;28;20034;-79
2023/10/10 01:39:54;;;;;;;6.95;2.60;;;;;;;15.43;44.63;99008.44;4961955;28;20026;-79
2023/10/10 01:42:36;;;;;;;6.88;2.78;;;;;;;15.40;44.64;99004.28;4977940;28;20058;-79
2023/10/10 01:45:07;;;;;;;5.78;2.50;;;;;;;15.39;44.84;99010.53;4965757;28;20486;-79
2023/10/10 01:47:34;;;;;;;4.50;2.28;;;;;;;15.39;44.61;99015.78;4962693;28;20398;-80
2023/10/10 01:50:07;;;;;;;6.22;2.60;;;;;;;15.41;44.71;99007.75;4946012;28;20030;-81
2023/10/10 01:52:34;;;;;;;5.43;2.40;;;;;;;15.38;44.89;99003.59;4963800;28;20092;-80
2023/10/10 01:55:00;;;;;;;5.90;2.50;;;;;;;15.38;44.91;99017.56;4978255;28;20466;-80
2023/10/10 01:57:26;;;;;;;7.03;2.53;;;;;;;15.39;44.98;99015.78;4961296;28;20116;-80
2023/10/10 01:59:51;;;;;;;7.22;2.35;;;;;;;15.35;45.08;99011.78;4945965;28;20031;-79
2023/10/10 02:02:21;;;;;;;7.45;2.70;;;;;;;15.40;45.42;99016.59;4961980;28;20068;-80
2023/10/10 02:04:51;;;;;;;4.20;2.20;;;;;;;15.40;45.36;99004.28;4947379;28;20441;-81
2023/10/10 02:07:22;;;;;;;9.43;2.45;;;;;;;15.41;45.25;98994.59;4961769;28;20042;-79
2023/10/10 02:09:58;;;;;;;7.10;2.83;;;;;;;15.45;44.88;98990.69;4946490;28;20057;-79
2023/10/10 02:12:26;;;;;;;11.02;2.58;;;;;;;15.49;44.84;98995.53;4964083;28;20038;-79
2023/10/10 02:14:54;;;;;;;6.25;2.60;;;;;;;15.52;44.60;98986.53;4961535;28;20034;-78
2023/10/10 02:17:24;;;;;;;7.45;2.65;;;;;;;15.55;44.63;98988.88;4962740;28;20038;-79
2023/10/10 02:19:54;;;;;;;8.70;2.60;;;;;;;15.51;44.86;98977.84;4962202;28;20042;-79
2023/10/10 02:22:23;;;;;;;7.15;2.47;;;;;;;15.58;44.80;98980.72;4947139;28;20089;-79
2023/10/10 02:27:52;;;;;;;6.10;2.30;;;;;;;15.55;44.46;98983.63;4966422;28;20041;-80
2023/10/10 02:30:37;;;;;;;5.68;2.45;;;;;;;15.58;44.58;98978.09;4968194;28;20062;-79
2023/10/10 02:35:54;;;;;;;5.35;2.60;;;;;;;15.63;44.68;98980.28;4973880;28;20077;-79
2023/10/10 02:38:34;;;;;;;9.25;2.15;;;;;;;15.65;44.63;98980.97;4974180;28;20030;-79
2023/10/10 02:43:56;;;;;;;5.10;2.47;;;;;;;15.66;44.82;98977.38;4972514;28;20041;-76
2023/10/10 02:46:42;;;;;;;4.35;2.28;;;;;;;15.64;44.71;98972.25;4947934;28;20034;-75
2023/10/10 02:49:29;;;;;;;4.75;2.30;;;;;;;15.66;44.72;98969.47;4970042;28;20506;-75
2023/10/10 02:51:55;;;;;;;4.00;2.03;;;;;;;15.72;45.07;98987.31;4981776;28;20429;-75
2023/10/10 02:56:58;;;;;;;4.95;2.22;;;;;;;15.73;45.30;98983.69;4966139;28;20034;-75
2023/10/10 02:59:38;;;;;;;5.35;2.20;;;;;;;15.71;45.42;98981.22;4945485;28;20079;-75
2023/10/10 03:02:18;;;;;;;6.78;2.67;;;;;;;15.68;45.47;98978.88;4966171;28;20026;-75
2023/10/10 03:07:29;;;;;;;5.93;2.60;;;;;;;15.74;45.54;98988.00;4979748;28;20113;-77
2023/10/10 03:12:41;;;;;;;5.82;2.60;;;;;;;15.69;45.70;98982.34;4960629;28;20049;-76
2023/10/10 03:20:25;;;;;;;6.30;3.28;;;;;;;15.70;45.81;98994.50;4976142;28;20367;-76
2023/10/10 03:26:04;;;;;;;7.38;2.55;;;;;;;15.65;46.08;98997.56;4901606;29;20040;-76
2023/10/10 03:28:34;;;;;;;7.97;2.85;;;;;;;15.63;45.64;99004.78;4886889;29;20036;-76
2023/10/10 03:31:08;;;;;;;12.18;3.20;;;;;;;15.63;45.52;99011.88;4882640;29;20555;-76
2023/10/10 03:33:37;;;;;;;13.05;3.25;;;;;;;15.59;45.04;99005.22;4883214;29;20488;-77
2023/10/10 05:23:30;;;;;;;10.60;3.35;;;;;;;15.58;45.20;99000.94;4908285;29;20063;-84
2023/10/10 05:25:17;;;;;;;10.77;3.33;;;;;;;16.68;42.69;99058.13;4967447;28;20406;-77
2023/10/10 05:27:43;;;;;;;13.40;3.35;;;;;;;16.75;42.39;99061.84;4947689;28;20049;-76
2023/10/10 05:30:23;;;;;;;13.45;3.42;;;;;;;16.81;42.47;99065.69;4961481;28;20494;-78
2023/10/10 05:33:01;;;;;;;17.45;3.17;;;;;;;16.78;42.24;99052.81;4965845;28;20026;-78
2023/10/10 05:35:37;;;;;;;14.32;3.42;;;;;;;16.81;42.24;99055.97;4962146;28;20342;-76
2023/10/10 05:38:15;;;;;;;12.25;3.30;;;;;;;16.85;42.10;99067.03;4961989;28;20493;-77
2023/10/10 05:40:43;;;;;;;11.18;3.35;;;;;;;16.90;42.21;99075.34;4979713;28;20541;-78
2023/10/10 05:43:09;;;;;;;12.75;3.90;;;;;;;16.90;41.96;99078.00;4946135;28;20061;-76
2023/10/10 05:45:38;;;;;;;19.52;4.03;;;;;;;16.90;42.06;99077.16;4962039;28;20048;-77
2023/10/10 05:48:05;;;;;;;17.02;4.15;;;;;;;16.92;41.86;99073.41;4945653;28;20153;-78
2023/10/10 05:50:32;;;;;;;12.98;4.00;;;;;;;16.99;41.76;99085.00;4945540;28;20070;-77
2023/10/10 05:53:01;;;;;;;9.65;4.18;;;;;;;17.30;41.07;99082.00;4945725;28;20038;-77
2023/10/10 05:55:38;;;;;;;17.52;4.30;;;;;;;17.26;41.44;99082.47;4945557;28;20022;-77
2023/10/10 05:58:04;;;;;;;9.23;3.70;;;;;;;17.32;40.88;99077.41;4962409;28;20034;-76
2023/10/10 06:00:36;;;;;;;15.18;4.63;;;;;;;17.75;40.33;99088.13;4961201;28;20038;-77
2023/10/10 06:03:02;;;;;;;19.33;4.32;;;;;;;17.67;40.28;99088.06;4961966;28;20477;-77
2023/10/10 06:05:29;;;;;;;9.68;4.05;;;;;;;17.68;40.45;99097.66;4945187;28;20030;-78
2023/10/10 06:07:55;;;;;;;16.50;4.03;;;;;;;17.66;40.30;99081.13;4945468;28;20034;-77
2023/10/10 06:10:28;;;;;;;16.02;3.67;;;;;;;17.72;40.20;99096.34;4944338;28;20039;-76
2023/10/10 06:12:55;;;;;;;15.05;4.38;;;;;;;17.98;39.73;99091.13;4947064;28;20042;-77
2023/10/10 06:15:20;;;;;;;10.60;4.55;;;;;;;18.23;39.47;99102.66;4944901;28;20054;-77
2023/10/10 06:17:48;;;;;;;13.27;4.35;;;;;;;19.14;37.86;99097.69;4961012;28;20117;-80
2023/10/10 06:20:16;;;;;;;17.45;4.13;;;;;;;20.37;35.77;99091.44;4945266;28;20038;-77
2023/10/10 06:22:45;;;;;;;11.93;3.97;;;;;;;21.24;34.59;99093.97;4945281;28;20037;-77
2023/10/10 06:25:17;;;;;;;15.60;3.88;;;;;;;21.66;33.68;99095.34;4945368;28;20413;-77
2023/10/10 06:27:46;;;;;;;24.23;4.28;;;;;;;22.71;31.82;99093.53;4977351;28;20034;-76
2023/10/10 06:30:17;;;;;;;17.27;3.97;;;;;;;23.77;30.37;99084.09;4944760;28;20034;-76
2023/10/10 06:32:44;;;;;;;10.85;4.30;;;;;;;24.85;28.90;99094.34;4962519;28;20027;-75
2023/10/10 06:37:45;;;;;;;19.20;3.83;;;;;;;26.67;26.13;99086.03;4977989;28;20027;-78
2023/10/10 06:40:11;;;;;;;21.10;4.57;;;;;;;27.43;25.38;99078.97;4960815;28;20062;-77
2023/10/10 06:42:37;;;;;;;18.27;4.10;;;;;;;28.11;24.07;99071.97;4944647;28;20037;-77
2023/10/10 06:45:11;;;;;;;28.63;4.55;;;;;;;28.79;23.05;99072.84;4944629;28;20514;-77
2023/10/10 06:47:39;;;;;;;17.70;4.65;;;;;;;29.52;22.17;99079.78;4962679;28;20058;-77
2023/10/10 06:50:11;;;;;;;16.60;4.30;;;;;;;30.10;21.14;99091.63;4960191;28;20035;-77
2023/10/10 06:52:37;;;;;;;21.40;4.78;;;;;;;29.81;21.43;99087.22;4945477;28;20121;-76
2023/10/10 06:55:20;;;;;;;20.63;4.55;;;;;;;29.08;21.81;99099.91;4959953;28;20113;-77
2023/10/10 06:57:57;;;;;;;25.35;4.93;;;;;;;28.59;22.28;99102.63;4978788;28;20026;-75
2023/10/10 07:00:45;;;;;;;19.17;4.97;;;;;;;28.22;22.79;99094.56;4962747;28;20038;-76
2023/10/10 07:03:09;;;;;;;19.58;5.00;;;;;;;27.95;22.90;99097.53;4964843;28;20465;-76
2023/10/10 07:05:35;;;;;;;24.10;5.78;;;;;;;27.46;23.07;99101.88;4960333;28;20050;-76
2023/10/10 07:08:24;;;;;;;18.98;5.57;;;;;;;26.92;24.09;99104.06;4959985;28;20401;-77
2023/10/10 07:10:51;;;;;;;21.92;6.47;;;;;;;26.36;24.39;99096.44;4962434;28;20030;-77
2023/10/10 07:13:19;;;;;;;25.90;6.13;;;;;;;26.00;25.07;99112.97;4943935;28;20100;-76
2023/10/10 07:15:51;;;;;;;;;;;;;;;25.67;25.43;99110.31;4961042;28;20046;-75
2023/10/10 07:18:22;;;;;;;21.90;5.68;;;;;;;25.61;25.42;99104.75;4960968;28;19972;-76
2023/10/10 07:23:38;;;;;;;19.23;4.63;;;;;;;25.32;25.78;99108.66;4965342;28;20038;-77
2023/10/10 07:26:18;;;;;;;14.88;3.80;;;;;;;25.02;26.38;99100.97;4960387;28;20034;-76
2023/10/10 07:28:48;;;;;;;17.20;4.03;;;;;;;24.79;26.63;99106.63;4962951;28;20034;-77
2023/10/10 07:31:23;;;;;;;14.40;3.65;;;;;;;24.58;26.69;99114.78;4960735;28;20076;-76
2023/10/10 07:34:15;;;;;;;15.18;3.65;;;;;;;24.45;27.08;99110.16;4945489;28;20045;-76
2023/10/10 07:36:43;;;;;;;16.15;3.42;;;;;;;24.26;27.37;99123.22;4966218;28;20038;-76
2023/10/10 07:41:53;;;;;;;16.67;3.03;;;;;;;24.02;27.60;99116.47;4965123;28;20508;-76
2023/10/10 07:44:22;;;;;;;16.80;3.10;;;;;;;24.04;27.88;99127.78;4943111;28;20038;-78
2023/10/10 07:49:32;;;;;;;21.33;2.80;;;;;;;24.79;27.12;99129.84;4965012;28;20041;-78
2023/10/10 07:52:02;;;;;;;11.38;3.20;;;;;;;24.69;27.13;99124.88;4943570;28;20066;-77
2023/10/10 07:54:38;;;;;;;18.50;2.95;;;;;;;24.43;27.57;99122.88;4961018;28;20042;-79
2023/10/10 07:57:07;;;;;;;9.10;2.85;;;;;;;24.18;28.08;99131.38;4946873;28;20030;-76
2023/10/10 07:59:36;;;;;;;8.40;2.60;;;;;;;23.94;28.30;99138.81;4959759;28;20042;-77
2023/10/10 08:02:19;;;;;;;17.95;3.08;;;;;;;23.71;28.46;99133.66;4976289;28;20026;-77
2023/10/10 08:04:49;;;;;;;11.18;2.67;;;;;;;23.52;29.01;99145.78;4978096;28;20154;-76
2023/10/10 08:07:19;;;;;;;18.13;3.08;;;;;;;23.30;29.41;99127.13;4960068;28;20370;-77
2023/10/10 08:09:46;;;;;;;9.98;2.67;;;;;;;23.17;29.65;99128.88;4960260;28;20034;-78
2023/10/10 08:12:15;;;;;;;10.55;2.80;;;;;;;23.02;30.07;99140.34;4943338;28;20065;-77
2023/10/10 08:14:42;;;;;;;9.70;2.60;;;;;;;22.92;30.65;99134.50;4959643;28;20483;-77
2023/10/10 08:17:29;;;;;;;8.07;2.65;;;;;;;22.92;30.52;99139.81;4959322;28;20500;-78
2023/10/10 08:19:54;;;;;;;11.63;2.88;;;;;;;22.73;30.45;99120.75;4964446;28;20049;-77
2023/10/10 08:22:25;;;;;;;15.88;2.60;;;;;;;22.70;30.87;99138.94;4943606;28;20070;-77
2023/10/10 08:24:54;;;;;;;20.25;3.20;;;;;;;22.53;30.99;99136.50;4960511;28;20034;-78
2023/10/10 08:27:22;;;;;;;10.70;2.92;;;;;;;22.48;31.19;99136.19;4943011;28;20027;-81
2023/10/10 08:29:50;;;;;;;12.57;3.08;;;;;;;22.38;31.54;99141.00;4943739;28;20568;-77
2023/10/10 08:32:16;;;;;;;10.68;3.70;;;;;;;22.31;31.76;99137.41;4960128;28;20034;-82
2023/10/10 08:34:45;;;;;;;10.93;3.22;;;;;;;22.27;31.84;99138.75;4943346;28;20046;-77
2023/10/10 08:37:11;;;;;;;14.00;3.28;;;;;;;22.23;32.18;99133.81;4944209;28;20548;-77
2023/10/10 08:39:36;;;;;;;14.18;3.75;;;;;;;22.23;32.09;99136.47;4959042;28;20113;-79
2023/10/10 08:42:06;;;;;;;19.23;4.13;;;;;;;22.18;32.23;99138.00;4959287;28;20080;-77
2023/10/10 08:44:38;;;;;;;19.85;4.20;;;;;;;22.08;32.55;99134.81;4959146;28;20074;-79
2023/10/10 08:47:06;;;;;;;16.35;4.03;;;;;;;22.14;32.44;99136.72;4959000;28;20088;-77
2023/10/10 08:49:31;;;;;;;20.93;4.30;;;;;;;;;;4959319;28;20073;-80
2023/10/10 08:52:00;;;;;;;12.77;4.40;;;;;;;22.05;32.97;99123.50;4958915;28;20333;-77
2023/10/10 08:54:26;;;;;;;17.98;4.30;;;;;;;22.09;33.32;99136.44;4944252;28;20077;-77
2023/10/10 08:57:10;;;;;;;18.95;4.43;;;;;;;22.13;33.08;99127.09;4946231;28;20081;-78
2023/10/10 08:59:36;;;;;;;21.02;4.85;;;;;;;22.28;32.80;99125.28;4967791;28;20081;-79
2023/10/10 09:02:05;;;;;;;7.78;3.88;;;;;;;22.64;32.43;99140.50;4946593;28;20041;-77
2023/10/10 09:04:30;;;;;;;9.10;3.95;;;;;;;23.16;32.28;99137.84;4978749;28;20097;-79
2023/10/10 09:09:39;;;;;;;9.30;3.78;;;;;;;23.72;31.74;99131.81;4962198;28;20087;-77
2023/10/10 09:12:14;;;;;;;10.98;3.75;;;;;;;23.90;31.76;99134.06;4967443;28;20122;-77
2023/10/10 09:14:49;;;;;;;11.90;3.42;;;;;;;24.09;31.77;99125.34;4963154;28;20131;-78
2023/10/10 09:17:40;;;;;;;11.85;3.45;;;;;;;24.19;31.95;99133.84;4964040;28;20508;-79
2023/10/10 09:20:22;;;;;;;9.15;3.22;;;;;;;24.17;32.21;99130.53;4949378;28;20045;-76
2023/10/10 09:22:55;;;;;;;10.52;3.40;;;;;;;24.13;32.07;99145.28;4967515;28;20105;-80
2023/10/10 09:25:48;;;;;;;10.00;3.10;;;;;;;24.09;32.66;99143.22;4963749;28;20092;-77
2023/10/10 09:28:18;;;;;;;8.65;3.55;;;;;;;24.07;32.93;99143.41;4965271;28;20049;-76
2023/10/10 09:30:58;;;;;;;10.00;3.05;;;;;;;24.23;32.92;99144.94;4946066;28;20034;-76
2023/10/10 09:35:58;;;;;;;;;;;;;;;24.69;32.68;99136.38;4978774;28;20034;-78
2023/10/10 09:38:45;;;;;;;;;;;;;;;24.96;32.24;99130.31;4979891;28;19972;-79
2023/10/10 09:41:36;;;;;;;8.48;3.00;;;;;;;25.05;31.93;99129.13;4978415;28;20416;-80
2023/10/10 09:47:13;;;;;;;7.13;2.75;;;;;;;26.47;30.20;99124.41;4965845;28;20034;-77
2023/10/10 09:50:00;;;;;;;6.82;3.03;;;;;;;27.05;29.77;99112.00;4978056;28;20486;-76
2023/10/10 09:53:19;;;;;;;4.55;2.53;;;;;;;27.63;29.25;99121.72;4966472;28;20122;-75
2023/10/10 10:00:47;;;;;;;8.48;2.65;;;;;;;29.14;27.46;99105.19;4950510;28;20035;-76
2023/10/10 10:09:18;;;;;;;4.20;2.47;;;;;;;30.11;26.32;99101.34;4972582;28;20046;-77
2023/10/10 10:12:08;;;;;;;5.45;2.13;;;;;;;30.40;25.92;99098.75;4959579;28;20474;-77
2023/10/10 10:14:55;;;;;;;3.70;1.90;;;;;;;30.57;25.28;99093.44;4956686;28;20038;-77
2023/10/10 10:17:30;;;;;;;6.82;2.10;;;;;;;30.73;25.06;99091.06;4956766;28;20133;-75
2023/10/10 10:20:19;;;;;;;7.32;1.80;;;;;;;30.85;25.32;99087.25;4957629;28;20041;-77
2023/10/10 10:22:53;;;;;;;6.07;2.03;;;;;;;31.02;24.77;99087.28;4945838;28;20038;-75
2023/10/10 10:25:22;;;;;;;3.10;1.90;;;;;;;31.09;25.12;99073.69;4957563;28;20031;-78
2023/10/10 10:27:51;;;;;;;4.78;2.15;;;;;;;31.14;24.68;99072.94;4956819;28;20042;-79
2023/10/10 10:32:49;;;;;;;3.58;1.77;;;;;;;31.26;24.46;99070.16;4956960;28;20054;-76
2023/10/10 10:35:36;;;;;;;6.05;2.20;;;;;;;31.25;24.73;99063.13;4961255;28;20043;-78
2023/10/10 10:38:06;;;;;;;4.47;1.83;;;;;;;31.24;24.50;99061.50;4947440;28;20037;-75
2023/10/10 10:43:14;;;;;;;8.50;2.20;;;;;;;31.13;24.76;99053.25;4977795;28;20026;-80
2023/10/10 10:45:44;;;;;;;6.10;2.10;;;;;;;31.09;24.45;99065.59;4945886;28;20121;-74
2023/10/10 10:48:29;;;;;;;3.45;1.95;;;;;;;31.06;24.56;99052.59;4961045;28;20027;-76
2023/10/10 10:51:22;;;;;;;6.80;1.92;;;;;;;30.96;24.70;99047.84;4949263;28;20089;-77
2023/10/10 10:53:58;;;;;;;5.50;2.20;;;;;;;30.91;24.78;99046.91;4965868;28;20027;-76
2023/10/10 10:56:37;;;;;;;2.88;1.67;;;;;;;30.85;24.95;99045.97;4962545;28;20113;-76
2023/10/10 10:59:13;;;;;;;4.32;1.70;;;;;;;30.75;24.85;99052.00;4948138;28;20042;-76
2023/10/10 11:01:57;;;;;;;3.17;1.70;;;;;;;30.66;25.02;99056.16;4961881;28;20058;-76
2023/10/10 11:04:45;;;;;;;3.03;1.50;;;;;;;30.61;25.25;99054.16;4963568;28;20019;-78
2023/10/10 11:07:15;;;;;;;3.05;1.45;;;;;;;30.53;24.99;99045.69;4965538;28;20042;-76
2023/10/10 11:09:52;;;;;;;8.68;2.05;;;;;;;30.45;24.96;99057.66;4961822;28;20046;-77
2023/10/10 11:12:21;;;;;;;3.47;1.50;;;;;;;30.34;24.82;99051.19;4947168;28;20134;-78
2023/10/10 11:14:49;;;;;;;3.38;1.60;;;;;;;30.22;25.19;99063.88;4960817;28;20524;-80
2023/10/10 11:17:17;;;;;;;3.17;1.30;;;;;;;30.19;25.30;99058.97;4944278;28;20082;-77
2023/10/10 11:19:43;;;;;;;4.03;1.50;;;;;;;29.89;25.28;99060.78;4943794;28;20137;-76
2023/10/10 11:22:15;;;;;;;4.68;1.40;;;;;;;29.61;25.48;99058.78;4959875;28;20549;-76
2023/10/10 11:24:46;;;;;;;4.05;1.48;;;;;;;29.45;25.98;99065.66;4945561;28;20022;-75
2023/10/10 11:29:47;;;;;;;10.05;1.95;;;;;;;28.98;26.44;99066.34;4959739;28;20041;-76
2023/10/10 11:32:29;;;;;;;5.95;1.60;;;;;;;28.78;26.75;99065.81;4960380;28;20069;-77
2023/10/10 11:35:17;;;;;;;4.15;1.52;;;;;;;28.62;26.56;99068.09;4960903;28;20473;-77
2023/10/10 11:37:47;;;;;;;7.65;1.63;;;;;;;28.44;26.88;99068.09;4962368;28;20034;-81
2023/10/10 11:42:56;;;;;;;5.22;1.40;;;;;;;28.02;27.49;99068.75;4977639;28;20038;-77
2023/10/10 11:45:26;;;;;;;3.55;1.30;;;;;;;27.82;27.62;99076.16;4943834;28;20022;-76
2023/10/10 11:47:52;;;;;;;6.13;1.20;;;;;;;27.58;27.99;99079.47;4945058;28;20564;-77
2023/10/10 11:50:17;;;;;;;3.30;1.35;;;;;;;27.32;28.18;99080.50;4943836;28;20488;-80
2023/10/10 11:53:27;;;;;;;4.03;1.55;;;;;;;27.12;28.43;99087.84;4959500;28;20038;-76
2023/10/10 11:56:01;;;;;;;3.63;1.58;;;;;;;26.86;28.63;99082.41;4991063;28;20038;-78
2023/10/10 11:58:35;;;;;;;4.10;1.05;;;;;;;26.62;28.96;99073.25;4961441;28;20049;-77
2023/10/10 12:01:05;;;;;;;7.00;1.50;;;;;;;26.38;29.44;99079.31;4961983;28;20034;-77
2023/10/10 12:06:14;;;;;;;3.47;1.45;;;;;;;26.03;29.78;99080.47;4962094;28;20030;-76
2023/10/10 12:08:47;;;;;;;3.20;1.45;;;;;;;25.86;29.86;99079.25;4944389;28;20053;-76
2023/10/10 12:11:15;;;;;;;4.20;1.40;;;;;;;25.77;30.33;99084.78;4960850;28;20521;-77
2023/10/10 12:13:44;;;;;;;4.15;1.45;;;;;;;25.62;30.21;99078.84;4943945;28;20486;-77
2023/10/10 12:16:10;;;;;;;4.88;1.58;;;;;;;25.52;30.43;99076.56;4944586;28;20046;-77
2023/10/10 12:18:49;;;;;;;3.20;1.70;;;;;;;25.43;30.60;99078.63;4959770;28;20038;-78
2023/10/10 12:21:19;;;;;;;6.70;1.70;;;;;;;25.39;30.55;99073.91;4944802;28;20031;-76
2023/10/10 12:23:50;;;;;;;2.88;1.20;;;;;;;25.43;30.66;99080.50;4959615;28;20093;-77
2023/10/10 12:26:18;;;;;;;3.88;1.63;;;;;;;25.48;30.70;99067.34;4960585;28;20547;-78
2023/10/10 12:28:46;;;;;;;5.25;2.15;;;;;;;25.54;30.75;99068.34;4943659;28;20057;-79
2023/10/10 12:31:16;;;;;;;5.22;1.80;;;;;;;25.47;31.07;99071.03;4946067;28;20034;-76
2023/10/10 12:33:45;;;;;;;4.25;1.70;;;;;;;25.42;30.75;99065.47;4948063;28;20117;-81
2023/10/10 12:36:11;;;;;;;4.53;2.10;;;;;;;25.33;31.54;99072.06;4963389;28;20049;-79
2023/10/10 12:38:40;;;;;;;5.85;1.80;;;;;;;25.27;31.48;99069.16;4963252;28;20486;-77
2023/10/10 12:41:06;;;;;;;2.92;1.67;;;;;;;25.24;31.37;99068.75;4963837;28;20040;-77
2023/10/10 12:43:32;;;;;;;2.70;1.83;;;;;;;25.22;31.59;99076.13;4978873;28;20032;-77
2023/10/10 12:46:01;;;;;;;5.00;2.00;;;;;;;25.20;31.57;99068.31;4946571;28;20038;-78
2023/10/10 12:48:28;;;;;;;5.80;2.45;;;;;;;25.16;31.67;99071.59;4963070;28;20037;-77
2023/10/10 12:51:00;;;;;;;4.07;2.00;;;;;;;25.07;31.70;99061.09;4946985;28;20121;-77
2023/10/10 12:53:30;;;;;;;6.30;1.92;;;;;;;25.04;32.36;99061.50;4948808;28;20057;-77
2023/10/10 12:56:01;;;;;;;6.95;2.30;;;;;;;25.05;32.12;99073.03;4963861;28;20445;-78
2023/10/10 12:58:28;;;;;;;3.75;2.10;;;;;;;24.94;32.57;99071.78;4947875;28;20038;-78
2023/10/10 13:00:53;;;;;;;3.72;1.75;;;;;;;24.92;32.58;99068.47;4978970;28;20034;-76
2023/10/10 13:03:20;;;;;;;3.55;2.10;;;;;;;25.03;32.21;99085.75;4946207;28;20031;-77
2023/10/10 13:05:47;;;;;;;3.08;1.80;;;;;;;25.04;32.43;99082.06;4946561;28;20030;-78
2023/10/10 13:08:18;;;;;;;3.40;1.60;;;;;;;24.96;32.44;99067.03;4946858;28;20072;-77
2023/10/10 13:10:44;;;;;;;4.28;1.92;;;;;;;25.03;32.12;99080.41;4962382;28;20030;-79
2023/10/10 13:13:10;;;;;;;4.03;1.50;;;;;;;25.07;32.03;99089.66;4946558;28;20417;-78
2023/10/10 13:15:50;;;;;;;5.50;1.60;;;;;;;24.98;32.00;99067.66;4961859;28;20157;-79
2023/10/10 13:18:24;;;;;;;3.58;1.35;;;;;;;25.05;31.81;99078.38;4943648;28;20137;-81
2023/10/10 13:20:50;;;;;;;4.22;1.40;;;;;;;25.04;31.77;99082.88;4963274;28;20065;-79
2023/10/10 13:23:19;;;;;;;3.35;1.27;;;;;;;25.01;32.21;99083.28;4946036;28;20034;-75
2023/10/10 13:25:45;;;;;;;5.40;1.40;;;;;;;25.00;32.13;99080.81;4946309;28;20074;-77
2023/10/10 13:28:17;;;;;;;5.22;1.52;;;;;;;24.94;31.82;99082.47;4962377;28;20410;-77
2023/10/10 13:30:49;;;;;;;3.55;1.45;;;;;;;24.88;31.92;99072.59;4946361;28;20034;-77
2023/10/10 13:33:16;;;;;;;3.08;1.38;;;;;;;24.89;32.10;99080.38;4963339;28;20054;-77
2023/10/10 13:35:42;;;;;;;4.40;1.25;;;;;;;24.83;31.99;99075.03;4945803;28;20118;-77
2023/10/10 13:38:08;;;;;;;2.58;1.67;;;;;;;24.81;32.10;99083.25;4945557;28;20124;-77
2023/10/10 13:40:48;;;;;;;2.60;1.30;;;;;;;24.77;32.11;99071.31;4961786;28;20022;-77
2023/10/10 13:43:18;;;;;;;7.30;1.30;;;;;;;24.75;32.33;99078.72;4965171;28;20030;-76
2023/10/10 13:45:51;;;;;;;4.50;1.30;;;;;;;24.69;32.14;99072.31;4978211;28;20022;-77
2023/10/10 13:48:23;;;;;;;5.57;1.20;;;;;;;24.66;32.49;99074.56;4962644;28;20031;-77
2023/10/10 13:50:51;;;;;;;6.50;1.30;;;;;;;24.67;32.55;99076.19;4963426;28;20054;-78
2023/10/10 13:53:16;;;;;;;;;;;;;;;24.64;32.62;99077.44;4962397;28;20026;-76
2023/10/10 13:55:45;;;;;;;2.45;1.30;;;;;;;24.55;32.39;99078.59;4961692;28;20115;-76
2023/10/10 13:58:12;;;;;;;2.97;1.27;;;;;;;24.55;32.53;99081.28;4945674;28;20129;-78
2023/10/10 14:00:41;;;;;;;7.10;1.37;;;;;;;24.51;32.80;99086.19;4945302;28;20042;-76
2023/10/10 14:03:07;;;;;;;4.32;1.38;;;;;;;24.44;32.95;99093.31;4961839;28;20121;-79
2023/10/10 14:05:34;;;;;;;7.85;1.30;;;;;;;24.36;33.00;99083.66;4961326;28;20049;-79
2023/10/10 14:08:03;;;;;;;4.40;1.50;;;;;;;24.24;33.36;99073.72;4961721;28;20137;-72
2023/10/10 14:10:35;;;;;;;2.20;1.20;;;;;;;24.25;33.02;99097.53;4961848;28;20068;-70
2023/10/10 14:13:18;;;;;;;6.68;1.35;;;;;;;24.10;33.15;99084.34;4977370;28;20125;-71
2023/10/10 14:15:56;;;;;;;6.55;1.50;;;;;;;24.07;33.34;99087.41;4963271;28;20082;-68
2023/10/10 14:18:22;;;;;;;;;;;;;;;24.01;33.66;99085.50;4977443;28;20046;-71
2023/10/10 14:20:50;;;;;;;8.80;1.45;;;;;;;23.96;33.84;99079.97;4960967;28;19972;-75
2023/10/10 14:23:24;;;;;;;8.48;1.60;;;;;;;23.91;33.89;99079.69;4961009;28;20117;-69
2023/10/10 14:25:50;;;;;;;10.48;1.58;;;;;;;23.83;34.37;99069.97;4977227;28;20069;-69
2023/10/10 14:28:16;;;;;;;12.13;2.00;;;;;;;23.79;34.37;99087.38;4960667;28;20026;-71
2023/10/10 14:30:49;;;;;;;3.92;1.50;;;;;;;23.74;34.39;99089.81;4961246;28;20121;-71
2023/10/10 14:33:16;;;;;;;11.00;1.92;;;;;;;23.63;34.60;99091.16;4963815;28;20381;-72
2023/10/10 14:35:43;;;;;;;9.00;1.60;;;;;;;23.64;34.86;99103.47;4977915;28;20051;-73
2023/10/10 14:38:14;;;;;;;14.73;1.80;;;;;;;23.62;34.63;99103.66;4976532;28;20034;-77
2023/10/10 14:40:41;;;;;;;6.07;1.65;;;;;;;23.52;34.88;99105.84;4946547;28;20049;-76
2023/10/10 14:43:07;;;;;;;10.32;1.63;;;;;;;23.47;34.93;99105.59;4959318;28;20457;-79
2023/10/10 14:45:33;;;;;;;6.65;1.52;;;;;;;23.42;34.95;99100.84;4944372;28;20139;-71
2023/10/10 14:48:04;;;;;;;8.43;1.65;;;;;;;23.41;35.32;99120.47;4958198;28;20094;-71
2023/10/10 14:50:42;;;;;;;10.15;1.80;;;;;;;23.34;35.25;99124.94;4964895;28;20472;-71
2023/10/10 14:53:11;;;;;;;7.60;1.80;;;;;;;23.29;35.22;99130.84;4974592;28;20141;-75
2023/10/10 14:55:39;;;;;;;8.57;1.75;;;;;;;23.21;35.37;99128.28;4956189;28;20078;-71
2023/10/10 14:58:08;;;;;;;9.95;1.70;;;;;;;23.18;35.46;99135.81;4954140;28;20047;-72